createdAt,value
2023-01-19T00:00:33.088Z,5.20
2023-01-19T00:04:40.380Z,5.30
2023-01-19T01:03:15.687Z,4.80
2023-01-19T01:07:19.036Z,4.70
2023-01-19T01:11:23.505Z,4.60
2023-01-19T01:15:31.465Z,4.60
2023-01-19T01:19:35.547Z,4.60
2023-01-19T01:23:40.073Z,4.60
2023-01-19T01:27:43.747Z,4.60
2023-01-19T01:31:51.799Z,4.60
2023-01-19T01:35:57.263Z,4.60
2023-01-19T01:40:00.475Z,4.60
2023-01-19T01:44:49.623Z,4.60
2023-01-19T01:49:15.762Z,4.70
2023-01-19T01:53:18.931Z,4.70
2023-01-19T01:57:27.975Z,4.80
2023-01-19T02:01:51.010Z,4.90
2023-01-19T02:06:19.310Z,5.00
2023-01-19T02:10:46.436Z,5.00
2023-01-19T02:14:50.915Z,5.10
2023-01-19T02:19:25.190Z,5.00
2023-01-19T02:23:45.684Z,5.10
2023-01-19T02:27:53.390Z,5.10
2023-01-19T02:31:57.400Z,5.10
2023-01-19T02:36:02.338Z,5.20
2023-01-19T02:40:12.649Z,5.10
2023-01-19T02:44:17.853Z,5.10
2023-01-19T03:09:00.239Z,4.80
2023-01-19T06:00:29.459Z,4.70
2023-01-19T06:04:58.894Z,4.60
2023-01-19T06:09:29.407Z,4.60
2023-01-19T06:13:58.717Z,4.60
2023-01-19T06:18:29.292Z,4.60
2023-01-19T06:22:59.152Z,4.60
2023-01-19T06:27:28.772Z,4.60
2023-01-19T06:31:58.825Z,4.60
2023-01-19T07:18:27.404Z,4.10
2023-01-19T07:22:57.369Z,4.10
2023-01-19T07:27:28.225Z,4.10
2023-01-19T07:44:40.345Z,4.60
2023-01-19T07:48:47.479Z,4.60
2023-01-19T07:52:53.677Z,4.70
2023-01-19T07:57:00.854Z,4.70
2023-01-19T08:01:11.919Z,4.80
2023-01-19T08:05:21.073Z,4.80
2023-01-19T08:09:24.529Z,4.90
2023-01-19T08:13:27.936Z,4.90
2023-01-19T08:17:33.220Z,5.00
2023-01-19T08:21:39.097Z,5.00
2023-01-19T08:25:45.272Z,5.10
2023-01-19T08:29:50.177Z,5.20
2023-01-19T08:33:55.529Z,5.10
2023-01-19T08:38:01.774Z,5.00
2023-01-19T08:42:06.072Z,5.00
2023-01-19T08:46:11.907Z,5.10
2023-01-19T08:50:18.261Z,5.10
2023-01-19T08:54:23.347Z,5.10
2023-01-19T08:58:26.432Z,4.90
2023-01-19T09:02:30.819Z,4.80
2023-01-19T09:06:34.282Z,4.80
2023-01-19T09:10:48.560Z,4.80
2023-01-19T09:14:51.660Z,4.90
2023-01-19T09:18:54.649Z,5.00
2023-01-19T09:22:58.911Z,5.10
2023-01-19T09:27:03.038Z,5.10
2023-01-19T09:44:41.150Z,5.60
2023-01-19T09:48:56.724Z,5.70
2023-01-19T09:53:45.311Z,5.90
2023-01-19T09:59:08.369Z,6.00
2023-01-19T10:03:17.885Z,6.10
2023-01-19T10:08:09.741Z,6.20
2023-01-19T10:12:51.295Z,6.30
2023-01-19T10:17:16.244Z,6.40
2023-01-19T10:21:31.629Z,6.50
2023-01-19T10:25:35.892Z,6.50
2023-01-19T10:29:43.211Z,6.80
2023-01-19T10:33:48.190Z,6.90
2023-01-19T10:38:35.482Z,7.10
2023-01-19T10:59:56.544Z,8.40
2023-01-19T11:19:42.597Z,8.90
2023-01-19T11:51:57.812Z,10.20
2023-01-19T11:56:29.841Z,10.50
2023-01-19T12:00:37.794Z,10.80
2023-01-19T12:05:13.226Z,10.80
2023-01-19T12:09:20.984Z,11.00
2023-01-19T12:13:28.766Z,11.10
2023-01-19T12:17:43.719Z,11.20
2023-01-19T12:21:48.498Z,11.50
2023-01-19T12:26:30.691Z,11.50
2023-01-19T12:30:38.237Z,11.50
2023-01-19T12:34:51.950Z,11.40
2023-01-19T12:45:59.840Z,11.20
2023-01-19T12:50:19.303Z,11.30
2023-01-19T12:54:34.257Z,11.30
2023-01-19T12:59:04.643Z,11.20
2023-01-19T13:03:33.618Z,11.00
2023-01-19T13:08:06.883Z,11.20
2023-01-19T13:12:36.938Z,11.20
2023-01-19T13:17:00.486Z,11.10
2023-01-19T13:21:44.751Z,11.00
2023-01-19T13:26:21.125Z,10.80
2023-01-19T13:30:33.969Z,10.80
2023-01-19T13:41:26.127Z,10.60
2023-01-19T13:45:38.201Z,10.50
2023-01-19T13:56:57.783Z,10.30
2023-01-19T14:15:00.815Z,10.00
2023-01-19T14:19:04.807Z,9.90
2023-01-19T14:23:47.940Z,9.70
2023-01-19T14:28:27.552Z,9.60
2023-01-19T15:27:49.588Z,7.40
2023-01-19T16:06:17.953Z,6.10
2023-01-19T16:10:21.606Z,6.00
2023-01-19T16:14:26.934Z,6.00
2023-01-19T16:18:31.434Z,6.00
2023-01-19T16:22:37.027Z,6.00
2023-01-19T16:41:11.607Z,5.40
2023-01-19T17:11:45.724Z,4.80
2023-01-19T17:16:00.131Z,4.80
2023-01-19T17:20:04.800Z,4.80
2023-01-19T17:24:08.407Z,4.80
2023-01-19T17:34:23.200Z,5.00
2023-01-19T17:52:26.123Z,4.90
2023-01-19T17:56:37.706Z,4.80
2023-01-19T18:00:44.222Z,4.80
2023-01-19T18:05:39.814Z,4.90
2023-01-19T18:09:45.254Z,5.00
2023-01-19T18:13:50.819Z,4.90
2023-01-19T18:17:54.646Z,4.90
2023-01-19T18:21:59.979Z,4.80
2023-01-19T18:26:10.057Z,4.70
2023-01-19T18:30:20.500Z,4.50
2023-01-19T18:42:28.442Z,4.10
2023-01-19T18:46:38.421Z,3.80
2023-01-19T18:50:45.324Z,3.70
2023-01-19T18:54:50.956Z,3.70
2023-01-19T18:59:21.287Z,3.80
2023-01-19T19:03:25.023Z,3.80
2023-01-19T19:07:55.175Z,3.70
2023-01-19T19:12:29.925Z,3.80
2023-01-19T19:16:59.906Z,3.90
2023-01-19T19:21:29.634Z,3.90
2023-01-19T19:25:33.247Z,4.00
2023-01-19T19:29:36.535Z,4.10
2023-01-19T19:34:05.616Z,4.10
2023-01-19T19:38:10.865Z,4.20
2023-01-19T20:37:01.926Z,4.30
2023-01-19T20:41:07.798Z,4.40
2023-01-19T20:45:16.558Z,4.50
2023-01-19T20:49:20.628Z,4.50
2023-01-19T20:54:14.657Z,4.50
2023-01-19T20:58:21.700Z,4.60
2023-01-19T21:02:50.616Z,4.50
2023-01-19T21:06:53.918Z,4.40
2023-01-19T21:10:58.597Z,4.30
2023-01-19T21:15:03.532Z,4.20
2023-01-19T21:19:32.588Z,4.10
2023-01-19T21:24:03.604Z,4.10
2023-01-19T21:28:32.704Z,4.10
2023-01-19T21:33:20.448Z,4.00
2023-01-19T22:11:19.547Z,3.80
2023-01-19T22:15:48.560Z,3.70
2023-01-19T22:20:18.780Z,3.70
2023-01-19T22:37:27.337Z,3.80
2023-01-19T22:48:20.248Z,3.80
2023-01-19T22:52:49.526Z,3.80
2023-01-19T23:31:36.702Z,3.50
2023-01-19T23:36:55.440Z,3.50
2023-01-19T23:41:26.014Z,3.60
2023-01-19T23:45:55.634Z,3.70
2023-01-19T23:50:25.673Z,3.70
2023-01-19T23:54:55.576Z,3.70
2023-01-19T23:59:25.509Z,3.80
